Time;durP1;ratioP1;P1;durP2;ratioP2;P2;SDS_P1;SDS_P2;PMS_P1;PMS_P2;Temp;Humidity;BMP_temperature;BMP_pressure;BME280_temperature;BME280_humidity;BME280_pressure;Samples;Min_cycle;Max_cycle;Signal;HPM_P1;HPM_P2
2022/10/25 00:01:29;;;;;;;27.00;19.37;;;14.90;99.90;;;;;;5135522;27;20438;-70
2022/10/25 00:03:55;;;;;;;29.03;19.30;;;14.90;99.90;;;;;;5135737;27;20251;-70
2022/10/25 00:06:22;;;;;;;27.00;17.73;;;14.90;99.90;;;;;;5135390;27;20803;-76
2022/10/25 00:08:48;;;;;;;29.60;18.93;;;14.90;99.90;;;;;;5135602;27;20426;-70
2022/10/25 00:11:20;;;;;;;26.60;18.20;;;14.90;99.90;;;;;;5135217;27;20491;-76
2022/10/25 00:13:49;;;;;;;26.33;18.47;;;14.90;99.90;;;;;;5117046;27;20815;-71
2022/10/25 00:16:16;;;;;;;31.27;20.77;;;15.00;99.90;;;;;;5135219;27;20419;-76
2022/10/25 00:18:41;;;;;;;28.70;20.37;;;14.90;99.90;;;;;;5135358;27;20923;-70
2022/10/25 00:21:07;;;;;;;28.73;19.03;;;14.90;99.90;;;;;;5135234;27;20434;-70
2022/10/25 00:23:33;;;;;;;29.43;17.43;;;14.90;99.90;;;;;;5135193;27;20211;-76
2022/10/25 00:26:03;;;;;;;23.80;17.97;;;14.90;99.90;;;;;;5135063;27;20575;-70
2022/10/25 00:28:28;;;;;;;24.57;18.20;;;14.90;99.90;;;;;;5116768;27;20710;-70
2022/10/25 00:31:06;;;;;;;22.37;17.20;;;14.90;99.90;;;;;;5116647;27;20538;-76
2022/10/25 00:33:33;;;;;;;25.97;18.83;;;14.80;99.90;;;;;;5135036;27;20182;-76
2022/10/25 00:36:06;;;;;;;27.47;18.90;;;14.80;99.90;;;;;;5116552;27;20422;-70
2022/10/25 00:38:32;;;;;;;22.07;17.17;;;14.70;99.90;;;;;;5135076;27;20423;-70
2022/10/25 00:40:58;;;;;;;26.20;17.90;;;14.70;99.90;;;;;;5116519;27;20431;-76
2022/10/25 00:43:38;;;;;;;25.37;18.77;;;14.60;99.90;;;;;;5116646;28;20305;-71
2022/10/25 00:46:19;;;;;;;35.57;22.93;;;14.60;99.90;;;;;;5134877;27;20453;-70
2022/10/25 00:49:09;;;;;;;33.87;19.80;;;14.50;99.90;;;;;;5116550;27;20498;-76
2022/10/25 00:51:44;;;;;;;32.73;20.40;;;14.50;99.90;;;;;;5134820;27;20435;-76
2022/10/25 00:54:14;;;;;;;31.50;20.00;;;14.50;99.90;;;;;;5135000;27;20756;-73
2022/10/25 00:56:42;;;;;;;33.67;22.13;;;14.50;99.90;;;;;;5134897;27;20400;-76
2022/10/25 00:59:11;;;;;;;38.53;22.23;;;14.50;99.90;;;;;;5116299;27;20430;-76
2022/10/25 01:01:37;;;;;;;35.07;21.30;;;14.50;99.90;;;;;;5134638;28;20463;-76
2022/10/25 01:04:07;;;;;;;33.90;21.73;;;14.60;99.90;;;;;;5116314;28;20433;-76
2022/10/25 01:06:37;;;;;;;32.10;21.27;;;14.60;99.90;;;;;;5134645;28;20408;-70
2022/10/25 01:09:05;;;;;;;35.63;21.57;;;14.60;99.90;;;;;;5116465;28;20430;-70
2022/10/25 01:11:31;;;;;;;37.57;22.93;;;14.70;99.90;;;;;;5134607;28;20408;-70
2022/10/25 01:13:57;;;;;;;27.67;19.37;;;14.70;99.90;;;;;;5116294;28;20423;-76
2022/10/25 01:16:41;;;;;;;32.20;19.83;;;14.70;99.90;;;;;;5134690;27;20191;-76
2022/10/25 01:19:27;;;;;;;28.93;19.23;;;14.70;99.90;;;;;;5134654;27;20762;-76
2022/10/25 01:22:00;;;;;;;38.30;19.60;;;14.70;99.90;;;;;;5137913;27;20457;-76
2022/10/25 01:24:44;;;;;;;30.60;18.57;;;14.70;99.90;;;;;;5138466;27;20459;-76
2022/10/25 01:27:23;;;;;;;22.80;16.40;;;14.70;99.90;;;;;;5120151;27;20435;-70
2022/10/25 01:30:14;;;;;;;25.20;16.70;;;14.70;99.90;;;;;;5139148;27;20443;-70
2022/10/25 01:33:15;;;;;;;26.43;16.90;;;14.80;99.90;;;;;;5108887;27;20420;-70
2022/10/25 01:35:43;;;;;;;24.10;16.10;;;14.80;99.90;;;;;;5119952;27;20959;-76
2022/10/25 01:38:24;;;;;;;27.13;14.83;;;14.90;99.90;;;;;;5138401;27;20411;-75
2022/10/25 01:41:16;;;;;;;35.47;16.70;;;14.90;99.90;;;;;;5138415;27;20458;-76
2022/10/25 01:44:15;;;;;;;24.90;16.17;;;14.90;99.90;;;;;;5119955;27;20525;-76
2022/10/25 01:46:58;;;;;;;24.90;15.87;;;15.00;99.90;;;;;;5119917;27;20927;-70
2022/10/25 01:49:46;;;;;;;24.73;15.00;;;15.00;99.90;;;;;;5119934;27;20434;-76
2022/10/25 01:52:13;;;;;;;22.97;15.10;;;15.00;99.90;;;;;;5138228;27;20403;-76
2022/10/25 01:54:39;;;;;;;22.23;15.27;;;15.10;99.90;;;;;;5138169;27;20534;-76
2022/10/25 01:57:13;;;;;;;24.47;14.93;;;15.20;99.90;;;;;;5138040;27;20497;-76
2022/10/25 02:00:02;;;;;;;28.07;16.83;;;15.20;99.90;;;;;;5138445;27;20198;-76
2022/10/25 02:03:05;;;;;;;29.17;16.40;;;15.30;99.90;;;;;;5137926;27;20973;-76
2022/10/25 02:06:07;;;;;;;25.77;14.00;;;15.30;99.90;;;;;;5119378;27;20446;-76
2022/10/25 02:08:41;;;;;;;25.43;15.83;;;15.40;99.90;;;;;;5138031;27;20910;-70
2022/10/25 02:11:18;;;;;;;20.27;13.80;;;15.40;99.90;;;;;;5137743;27;20427;-70
2022/10/25 02:13:58;;;;;;;24.87;13.70;;;15.40;99.90;;;;;;5119380;27;20468;-70
2022/10/25 02:16:30;;;;;;;23.70;15.17;;;15.40;99.90;;;;;;5119375;27;20487;-70
2022/10/25 02:19:01;;;;;;;19.33;13.17;;;15.50;99.90;;;;;;5137941;27;20417;-76
2022/10/25 02:21:29;;;;;;;19.77;13.90;;;15.50;99.90;;;;;;5137453;27;20992;-70
2022/10/25 02:23:58;;;;;;;23.63;14.83;;;15.50;99.90;;;;;;5137569;27;20411;-71
2022/10/25 02:26:25;;;;;;;21.73;14.77;;;15.60;99.90;;;;;;5119384;27;20435;-71
2022/10/25 02:28:51;;;;;;;21.20;13.77;;;15.60;99.90;;;;;;5119134;27;20418;-71
2022/10/25 02:31:19;;;;;;;24.07;15.07;;;15.70;99.90;;;;;;5137298;27;20989;-70
2022/10/25 02:33:46;;;;;;;24.10;14.73;;;15.70;99.90;;;;;;5137582;27;20930;-70
2022/10/25 02:36:19;;;;;;;27.43;16.50;;;15.80;99.90;;;;;;5137295;27;20427;-76
2022/10/25 02:38:46;;;;;;;27.20;14.87;;;15.80;99.90;;;;;;5137417;27;20509;-76
2022/10/25 02:41:12;;;;;;;22.33;14.43;;;15.80;99.90;;;;;;5137195;27;20500;-75
2022/10/25 02:43:38;;;;;;;22.80;15.63;;;15.90;99.90;;;;;;5118741;27;21062;-71
2022/10/25 02:46:06;;;;;;;25.03;15.87;;;15.90;99.90;;;;;;5118506;27;20470;-79
2022/10/25 02:48:32;;;;;;;22.17;15.23;;;15.90;99.90;;;;;;5118714;27;20180;-78
2022/10/25 02:50:57;;;;;;;29.07;15.97;;;16.00;99.90;;;;;;5136974;27;20434;-73
2022/10/25 02:53:23;;;;;;;29.10;16.73;;;16.00;99.90;;;;;;5137038;27;20515;-78
2022/10/25 02:56:02;;;;;;;29.00;15.53;;;16.00;99.90;;;;;;5137037;27;20194;-79
2022/10/25 02:58:29;;;;;;;24.80;14.23;;;16.00;99.90;;;;;;5137248;27;20204;-79
2022/10/25 03:00:55;;;;;;;27.57;14.83;;;16.00;99.90;;;;;;5136822;27;20422;-76
2022/10/25 03:03:21;;;;;;;22.63;16.47;;;16.10;99.90;;;;;;5136684;27;20816;-73
2022/10/25 03:05:46;;;;;;;25.23;14.30;;;16.10;99.90;;;;;;5118287;27;20594;-74
2022/10/25 03:08:12;;;;;;;26.27;14.80;;;16.10;99.90;;;;;;5136654;27;20178;-79
2022/10/25 03:10:38;;;;;;;25.93;15.60;;;16.10;99.90;;;;;;5136624;27;20195;-73
2022/10/25 03:13:03;;;;;;;27.57;16.57;;;16.20;99.90;;;;;;5118398;27;20541;-79
2022/10/25 03:15:29;;;;;;;26.97;16.13;;;16.20;99.90;;;;;;5118106;27;20658;-73
2022/10/25 03:17:54;;;;;;;29.60;16.40;;;16.20;99.90;;;;;;5118146;27;20186;-73
2022/10/25 03:20:20;;;;;;;26.60;15.27;;;16.20;99.90;;;;;;5136798;27;20207;-73
2022/10/25 03:22:45;;;;;;;29.20;15.47;;;16.20;99.90;;;;;;5136312;27;20211;-73
2022/10/25 03:25:11;;;;;;;27.70;16.43;;;16.20;99.90;;;;;;5117870;27;20325;-74
2022/10/25 03:27:37;;;;;;;30.27;17.00;;;16.30;99.90;;;;;;5117964;27;20617;-73
2022/10/25 03:30:03;;;;;;;25.60;16.80;;;16.20;99.90;;;;;;5118039;27;20206;-79
2022/10/25 03:32:29;;;;;;;28.90;17.50;;;16.20;99.90;;;;;;5136140;27;20210;-73
2022/10/25 03:34:54;;;;;;;25.13;15.43;;;16.30;99.90;;;;;;5136573;27;20435;-73
2022/10/25 03:37:20;;;;;;;26.00;16.50;;;16.30;99.90;;;;;;5136160;27;20198;-73
2022/10/25 03:39:46;;;;;;;30.77;16.43;;;16.20;99.90;;;;;;5136386;27;20743;-73
2022/10/25 03:42:11;;;;;;;30.20;16.53;;;16.20;99.90;;;;;;5118459;27;20599;-78
2022/10/25 03:44:37;;;;;;;26.50;16.47;;;16.20;99.90;;;;;;5135739;27;20205;-79
2022/10/25 03:47:02;;;;;;;29.30;16.53;;;16.20;99.90;;;;;;5117720;27;20182;-73
2022/10/25 03:49:28;;;;;;;29.00;17.03;;;16.20;99.90;;;;;;5117456;27;20231;-73
2022/10/25 03:51:53;;;;;;;30.80;17.57;;;16.20;99.90;;;;;;5117410;27;20182;-73
2022/10/25 03:54:19;;;;;;;31.27;16.57;;;16.30;99.90;;;;;;5135772;27;20201;-79
2022/10/25 03:56:45;;;;;;;30.37;18.10;;;16.20;99.90;;;;;;5117400;27;20545;-76
2022/10/25 03:59:10;;;;;;;31.20;17.30;;;16.20;99.90;;;;;;5135580;27;20182;-79
2022/10/25 04:01:36;;;;;;;33.43;18.63;;;16.20;99.90;;;;;;5135576;27;20220;-73
2022/10/25 04:04:01;;;;;;;27.00;16.13;;;16.30;99.90;;;;;;5135731;27;20265;-79
2022/10/25 04:06:27;;;;;;;29.10;15.57;;;16.20;99.90;;;;;;5135280;27;20308;-77
2022/10/25 04:08:53;;;;;;;27.80;17.00;;;16.20;99.90;;;;;;5135652;27;20174;-73
2022/10/25 04:11:18;;;;;;;29.80;16.53;;;16.20;99.90;;;;;;5117052;27;20244;-73
2022/10/25 04:13:44;;;;;;;32.70;17.73;;;16.20;99.90;;;;;;5117040;27;20214;-73
2022/10/25 04:16:10;;;;;;;30.53;17.27;;;16.30;99.90;;;;;;5135291;27;20191;-73
2022/10/25 04:18:35;;;;;;;29.07;17.00;;;16.20;99.90;;;;;;5135531;27;20174;-79
2022/10/25 04:21:01;;;;;;;28.83;15.53;;;16.20;99.90;;;;;;5135223;27;20532;-74
2022/10/25 04:23:27;;;;;;;31.53;17.37;;;16.20;99.90;;;;;;5135354;27;20607;-79
2022/10/25 04:25:55;;;;;;;27.73;16.57;;;16.30;99.90;;;;;;5133715;27;20238;-73
2022/10/25 04:28:22;;;;;;;29.40;17.33;;;16.20;99.90;;;;;;5115392;27;20182;-73
2022/10/25 04:30:48;;;;;;;30.53;17.27;;;16.20;99.90;;;;;;5114944;27;20998;-73
2022/10/25 04:33:13;;;;;;;34.73;17.10;;;16.20;99.90;;;;;;5133587;27;20404;-74
2022/10/25 04:35:39;;;;;;;32.60;17.23;;;16.30;99.90;;;;;;5133747;27;20191;-79
2022/10/25 04:38:04;;;;;;;28.53;16.80;;;16.20;99.90;;;;;;5134970;27;20646;-79
2022/10/25 04:40:30;;;;;;;29.27;17.37;;;16.20;99.90;;;;;;5134911;27;20232;-77
2022/10/25 04:42:56;;;;;;;26.27;16.13;;;16.20;99.90;;;;;;5134176;27;20697;-78
2022/10/25 04:45:22;;;;;;;30.97;18.87;;;16.30;99.90;;;;;;5116545;27;20250;-78
2022/10/25 04:47:48;;;;;;;31.93;16.83;;;16.30;99.90;;;;;;5116409;27;20213;-73
2022/10/25 04:50:13;;;;;;;31.83;17.40;;;16.30;99.90;;;;;;5134726;27;20247;-73
2022/10/25 04:52:39;;;;;;;30.80;15.80;;;16.30;99.90;;;;;;5134871;27;20415;-76
2022/10/25 04:55:05;;;;;;;30.17;15.67;;;16.30;99.90;;;;;;5133457;27;20604;-78
2022/10/25 04:57:30;;;;;;;34.30;17.77;;;16.30;99.90;;;;;;5134041;27;20171;-73
2022/10/25 04:59:56;;;;;;;41.40;19.70;;;16.30;99.90;;;;;;5114452;28;20191;-73
2022/10/25 05:02:23;;;;;;;30.97;18.47;;;16.30;99.90;;;;;;5114738;28;20226;-73
2022/10/25 05:04:48;;;;;;;34.80;17.80;;;16.30;99.90;;;;;;5115947;28;20538;-78
2022/10/25 05:07:18;;;;;;;33.13;17.47;;;16.30;99.90;;;;;;5116237;28;20455;-73
2022/10/25 05:09:44;;;;;;;31.87;17.53;;;16.30;99.90;;;;;;5116260;28;20183;-73
2022/10/25 05:12:10;;;;;;;27.90;16.30;;;16.30;99.90;;;;;;5134504;28;20765;-73
2022/10/25 05:14:35;;;;;;;32.70;18.43;;;16.30;99.90;;;;;;5134435;27;20205;-73
2022/10/25 05:17:01;;;;;;;27.70;15.93;;;16.30;99.90;;;;;;5134631;28;20224;-74
2022/10/25 05:19:27;;;;;;;31.10;18.07;;;16.30;99.90;;;;;;5131710;28;20202;-78
2022/10/25 05:21:52;;;;;;;34.20;18.23;;;16.30;99.90;;;;;;5134094;28;20225;-78
2022/10/25 05:24:18;;;;;;;30.20;17.70;;;16.30;99.90;;;;;;5115228;27;20242;-73
2022/10/25 05:26:44;;;;;;;35.10;18.73;;;16.40;99.90;;;;;;5133606;28;20183;-78
2022/10/25 05:29:11;;;;;;;37.07;19.30;;;16.30;99.90;;;;;;5134163;27;20250;-73
2022/10/25 05:31:39;;;;;;;30.93;17.43;;;16.30;99.90;;;;;;5133560;28;20195;-73
2022/10/25 05:34:04;;;;;;;34.60;17.77;;;16.30;99.90;;;;;;5115352;27;20553;-76
2022/10/25 05:36:32;;;;;;;38.07;19.83;;;16.30;99.90;;;;;;5134374;28;20427;-71
2022/10/25 05:38:59;;;;;;;35.83;17.57;;;16.30;99.90;;;;;;5133425;28;20536;-76
2022/10/25 05:41:25;;;;;;;35.53;18.37;;;16.30;99.90;;;;;;5113216;28;20447;-76
2022/10/25 05:43:51;;;;;;;35.97;18.60;;;16.30;99.90;;;;;;5129645;28;20423;-71
2022/10/25 05:46:21;;;;;;;33.73;17.07;;;16.40;99.90;;;;;;5131145;28;20210;-77
2022/10/25 05:48:48;;;;;;;34.63;17.17;;;16.40;99.90;;;;;;5130655;28;20183;-71
2022/10/25 05:51:22;;;;;;;36.23;18.03;;;16.40;99.90;;;;;;5104809;28;20508;-71
2022/10/25 05:53:53;;;;;;;34.47;18.57;;;16.40;99.90;;;;;;5117350;28;20462;-76
2022/10/25 05:56:20;;;;;;;33.37;18.57;;;16.40;99.90;;;;;;5114149;28;21001;-77
2022/10/25 05:58:46;;;;;;;35.10;18.43;;;16.40;99.90;;;;;;5112341;28;20904;-76
2022/10/25 06:01:17;;;;;;;32.03;17.90;;;16.40;99.90;;;;;;5128592;28;21070;-71
2022/10/25 06:03:43;;;;;;;42.20;19.77;;;16.50;99.90;;;;;;5112609;28;20467;-71
2022/10/25 06:06:10;;;;;;;35.80;16.97;;;16.50;99.90;;;;;;5129019;27;20442;-79
2022/10/25 06:08:37;;;;;;;40.63;18.60;;;16.50;99.90;;;;;;5114456;28;20437;-73
2022/10/25 06:11:09;;;;;;;35.63;19.33;;;16.50;99.90;;;;;;5096868;28;20955;-79
2022/10/25 06:13:35;;;;;;;36.00;18.30;;;16.50;99.90;;;;;;5128837;27;20454;-79
2022/10/25 06:16:06;;;;;;;35.53;18.13;;;16.50;99.90;;;;;;5104359;27;20455;-73
2022/10/25 06:18:32;;;;;;;35.33;19.17;;;16.50;99.90;;;;;;5113441;27;20423;-73
2022/10/25 06:21:02;;;;;;;29.97;16.47;;;16.50;99.90;;;;;;5103498;27;20436;-73
2022/10/25 06:23:30;;;;;;;36.60;19.60;;;16.50;99.90;;;;;;5119369;27;20985;-79
2022/10/25 06:26:00;;;;;;;32.70;18.03;;;16.60;99.90;;;;;;5119123;27;21037;-73
2022/10/25 06:28:27;;;;;;;34.73;19.80;;;16.50;99.90;;;;;;5112090;27;20485;-79
2022/10/25 06:30:53;;;;;;;29.40;17.47;;;16.60;99.90;;;;;;5123421;27;20813;-73
2022/10/25 06:33:18;;;;;;;33.33;19.40;;;16.60;99.90;;;;;;5132434;27;20511;-79
2022/10/25 06:35:44;;;;;;;29.90;17.63;;;16.60;99.90;;;;;;5135366;27;20198;-79
2022/10/25 06:38:09;;;;;;;31.47;16.77;;;16.60;99.90;;;;;;5115682;27;20648;-79
2022/10/25 06:40:37;;;;;;;28.17;17.50;;;16.70;99.90;;;;;;5113300;28;20196;-73
2022/10/25 06:43:03;;;;;;;29.67;17.87;;;16.70;99.90;;;;;;5111504;27;20876;-76
2022/10/25 06:45:29;;;;;;;28.20;16.53;;;16.70;99.90;;;;;;5131935;27;20439;-73
2022/10/25 06:47:54;;;;;;;26.37;15.63;;;16.80;99.90;;;;;;5129438;27;20215;-73
2022/10/25 06:50:20;;;;;;;27.70;15.77;;;16.80;99.90;;;;;;5125878;27;20209;-75
2022/10/25 06:52:45;;;;;;;24.87;15.00;;;16.90;99.90;;;;;;5099786;27;20183;-76
2022/10/25 06:55:11;;;;;;;24.67;16.40;;;16.90;99.90;;;;;;5097443;27;20199;-79
2022/10/25 06:57:37;;;;;;;24.77;14.70;;;17.00;99.90;;;;;;5128790;27;20187;-78
2022/10/25 07:00:03;;;;;;;23.40;14.63;;;17.00;99.90;;;;;;5130924;27;20435;-73
2022/10/25 07:02:29;;;;;;;25.33;14.07;;;17.10;99.90;;;;;;5109884;27;20210;-73
2022/10/25 07:04:54;;;;;;;23.40;13.67;;;17.10;99.90;;;;;;5108093;27;21024;-79
2022/10/25 07:07:20;;;;;;;23.60;13.53;;;17.20;99.90;;;;;;5127392;27;20218;-73
2022/10/25 07:09:46;;;;;;;22.00;12.40;;;17.30;99.90;;;;;;5110975;27;20195;-79
2022/10/25 07:12:11;;;;;;;19.97;13.20;;;17.40;99.90;;;;;;5130639;27;20189;-73
2022/10/25 07:14:37;;;;;;;23.70;13.60;;;17.50;99.90;;;;;;5129598;27;20294;-79
2022/10/25 07:17:02;;;;;;;21.00;12.73;;;17.50;99.90;;;;;;5110779;27;20397;-78
2022/10/25 07:19:28;;;;;;;20.10;11.60;;;17.60;99.90;;;;;;5128636;27;20234;-79
2022/10/25 07:21:54;;;;;;;17.70;10.90;;;17.60;99.90;;;;;;5132064;27;20739;-73
2022/10/25 07:24:19;;;;;;;18.03;10.70;;;17.80;99.90;;;;;;5113102;27;20739;-79
2022/10/25 07:26:45;;;;;;;18.10;11.00;;;17.90;99.90;;;;;;5131484;27;20188;-79
2022/10/25 07:29:10;;;;;;;13.30;9.50;;;18.00;99.90;;;;;;5110567;27;20190;-79
2022/10/25 07:31:40;;;;;;;15.60;9.90;;;18.10;99.90;;;;;;5128264;27;20544;-73
2022/10/25 07:34:06;;;;;;;16.83;10.77;;;18.20;99.90;;;;;;5110645;27;20192;-79
2022/10/25 07:36:32;;;;;;;15.97;10.13;;;18.30;99.90;;;;;;5130063;27;20422;-79
2022/10/25 07:38:57;;;;;;;16.40;10.67;;;18.40;99.90;;;;;;5129890;27;20429;-73
2022/10/25 07:41:24;;;;;;;14.70;9.57;;;18.50;99.90;;;;;;5114329;27;20843;-79
2022/10/25 07:43:50;;;;;;;14.60;9.63;;;18.70;99.90;;;;;;5113208;27;20224;-79
2022/10/25 07:46:16;;;;;;;13.17;9.13;;;18.80;99.90;;;;;;5114812;27;20469;-79
2022/10/25 07:48:42;;;;;;;10.67;7.70;;;19.10;99.90;;;;;;5127922;27;20426;-79
2022/10/25 07:51:11;;;;;;;14.13;8.50;;;19.50;99.90;;;;;;5116029;27;20201;-79
2022/10/25 07:53:37;;;;;;;11.97;7.93;;;19.90;99.90;;;;;;5113744;27;20214;-79
2022/10/25 07:56:03;;;;;;;9.87;7.73;;;20.30;99.90;;;;;;5112170;27;20466;-73
2022/10/25 07:58:29;;;;;;;9.87;6.87;;;20.50;99.90;;;;;;5111410;27;20509;-73
2022/10/25 08:01:06;;;;;;;9.83;6.60;;;20.60;99.90;;;;;;5124355;27;20529;-79
2022/10/25 08:03:33;;;;;;;9.73;7.03;;;20.60;99.90;;;;;;5121189;27;20229;-79
2022/10/25 08:05:59;;;;;;;9.47;6.70;;;20.50;99.90;;;;;;5110310;27;20463;-73
2022/10/25 08:08:26;;;;;;;8.00;5.93;;;20.50;99.90;;;;;;5133973;27;20452;-73
2022/10/25 08:10:52;;;;;;;9.70;6.10;;;20.90;99.90;;;;;;5118286;27;20514;-74
2022/10/25 08:13:18;;;;;;;8.43;5.10;;;21.50;99.90;;;;;;5132830;27;20486;-74
2022/10/25 08:15:55;;;;;;;5.70;4.60;;;22.40;99.90;;;;;;5114297;27;20684;-74
2022/10/25 08:18:22;;;;;;;6.40;4.00;;;23.20;99.90;;;;;;5132974;27;20521;-79
2022/10/25 08:20:48;;;;;;;4.57;3.67;;;23.90;99.90;;;;;;5116354;27;20430;-79
2022/10/25 08:23:14;;;;;;;5.40;4.10;;;24.50;99.90;;;;;;5128794;27;20463;-78
2022/10/25 08:25:40;;;;;;;3.80;3.10;;;24.70;99.90;;;;;;5120236;27;20229;-79
2022/10/25 08:28:06;;;;;;;5.23;3.90;;;24.70;99.90;;;;;;5116443;27;20463;-74
2022/10/25 08:30:31;;;;;;;5.57;3.93;;;24.60;99.90;;;;;;5116441;27;20856;-79
2022/10/25 08:32:57;;;;;;;6.17;3.53;;;24.40;99.90;;;;;;5103343;27;20178;-78
2022/10/25 08:35:22;;;;;;;5.40;3.87;;;24.10;99.90;;;;;;5129828;27;20295;-79
2022/10/25 08:37:48;;;;;;;4.30;3.70;;;23.80;99.90;;;;;;5120209;27;20225;-77
2022/10/25 08:40:28;;;;;;;3.70;3.03;;;23.50;99.90;;;;;;5119982;27;20251;-73
2022/10/25 08:43:15;;;;;;;3.70;3.03;;;23.00;99.90;;;;;;5102363;27;20219;-79
2022/10/25 08:45:52;;;;;;;4.70;3.30;;;22.60;99.90;;;;;;5105322;27;20460;-72
2022/10/25 08:48:25;;;;;;;5.13;3.47;;;22.20;99.90;;;;;;5117047;27;20873;-76
2022/10/25 08:50:54;;;;;;;3.53;3.07;;;21.90;99.90;;;;;;5110030;27;20459;-77
2022/10/25 08:53:26;;;;;;;2.93;2.40;;;21.70;99.90;;;;;;5115162;27;20439;-78
2022/10/25 08:55:53;;;;;;;3.70;2.93;;;21.50;99.90;;;;;;5128868;27;20456;-72
2022/10/25 08:58:35;;;;;;;5.27;3.07;;;21.40;99.90;;;;;;5116599;27;20446;-78
2022/10/25 09:01:10;;;;;;;2.47;2.20;;;21.20;99.90;;;;;;5108516;28;20451;-79
2022/10/25 09:03:38;;;;;;;2.13;1.90;;;21.10;99.90;;;;;;5127054;27;20485;-72
2022/10/25 09:06:35;;;;;;;2.70;2.10;;;20.90;99.90;;;;;;5117337;28;20455;-72
2022/10/25 09:09:21;;;;;;;3.33;2.43;;;20.80;99.90;;;;;;5121179;28;20471;-78
2022/10/25 09:12:05;;;;;;;2.50;1.63;;;20.70;99.90;;;;;;5127009;28;20553;-78
2022/10/25 09:14:42;;;;;;;2.27;1.77;;;20.50;99.90;;;;;;5125756;27;20455;-72
2022/10/25 09:17:18;;;;;;;2.53;2.03;;;20.50;99.90;;;;;;5120022;28;20447;-78
2022/10/25 09:20:01;;;;;;;1.83;1.70;;;20.40;99.90;;;;;;5116824;28;20522;-72
2022/10/25 09:22:45;;;;;;;3.20;1.93;;;20.40;99.90;;;;;;5127895;28;20508;-72
2022/10/25 09:25:22;;;;;;;1.40;1.30;;;20.30;99.90;;;;;;5107502;28;20870;-79
2022/10/25 09:27:59;;;;;;;3.17;1.90;;;20.30;99.90;;;;;;5108092;28;20439;-72
2022/10/25 09:30:26;;;;;;;1.47;1.37;;;20.30;99.90;;;;;;5114982;28;20497;-72
2022/10/25 09:33:00;;;;;;;3.83;1.57;;;20.30;99.90;;;;;;5110916;28;20451;-72
2022/10/25 09:35:42;;;;;;;2.33;1.80;;;20.30;99.90;;;;;;5096120;28;20459;-72
2022/10/25 09:38:31;;;;;;;3.23;2.57;;;20.30;99.90;;;;;;5105797;28;20435;-79
2022/10/25 09:41:25;;;;;;;2.13;1.93;;;20.30;99.90;;;;;;5123236;27;20456;-72
2022/10/25 09:44:13;;;;;;;3.20;2.90;;;20.30;99.90;;;;;;5104247;27;20567;-72
2022/10/25 09:46:41;;;;;;;2.20;1.80;;;20.20;99.90;;;;;;5112265;27;20433;-72
2022/10/25 09:49:25;;;;;;;2.60;2.33;;;20.20;99.90;;;;;;5125797;27;20422;-72
2022/10/25 09:52:02;;;;;;;2.27;2.07;;;20.10;99.90;;;;;;5106580;27;20544;-78
2022/10/25 09:54:43;;;;;;;2.70;1.60;;;20.10;99.90;;;;;;5135071;27;20453;-72
2022/10/25 09:57:09;;;;;;;2.50;1.70;;;20.10;99.90;;;;;;5132221;27;20415;-78
2022/10/25 09:59:34;;;;;;;1.53;1.43;;;20.00;99.90;;;;;;5106635;27;20454;-72
2022/10/25 10:02:00;;;;;;;1.63;1.40;;;20.00;99.90;;;;;;5113678;27;20694;-75
2022/10/25 10:04:34;;;;;;;1.83;1.60;;;19.90;99.90;;;;;;5133370;27;20206;-72
2022/10/25 10:07:29;;;;;;;1.70;1.60;;;19.90;99.90;;;;;;5114024;27;20703;-78
2022/10/25 10:09:59;;;;;;;2.77;1.80;;;19.90;99.90;;;;;;5133729;27;20415;-72
2022/10/25 10:12:46;;;;;;;2.53;2.10;;;19.90;99.90;;;;;;5113057;27;20934;-78
2022/10/25 10:15:19;;;;;;;1.80;1.70;;;19.90;99.90;;;;;;5131761;27;20560;-78
2022/10/25 10:17:45;;;;;;;2.37;2.17;;;19.90;99.90;;;;;;5122169;27;20451;-72
2022/10/25 10:20:16;;;;;;;2.10;1.90;;;20.00;99.90;;;;;;5112357;27;20482;-78
2022/10/25 10:22:49;;;;;;;2.07;1.87;;;20.00;99.90;;;;;;5112419;27;20228;-78
2022/10/25 10:25:24;;;;;;;3.50;1.50;;;20.00;99.90;;;;;;5114531;27;20502;-78
2022/10/25 10:27:52;;;;;;;2.40;1.80;;;20.00;99.90;;;;;;5111729;27;20511;-79
2022/10/25 10:30:27;;;;;;;2.07;1.87;;;20.00;99.90;;;;;;5105805;27;20459;-78
2022/10/25 10:32:58;;;;;;;1.83;1.60;;;19.90;99.90;;;;;;5126435;27;20411;-72
2022/10/25 10:35:29;;;;;;;1.93;1.77;;;19.90;99.90;;;;;;5123999;27;20519;-72
2022/10/25 10:38:27;;;;;;;1.93;1.70;;;19.90;99.90;;;;;;5106175;27;20419;-72
2022/10/25 10:41:24;;;;;;;2.40;1.67;;;19.90;99.90;;;;;;5103304;27;20566;-78
2022/10/25 10:44:10;;;;;;;3.23;1.70;;;19.90;99.90;;;;;;5123002;27;20481;-78
2022/10/25 10:46:42;;;;;;;1.83;1.20;;;19.90;99.90;;;;;;5120562;27;20435;-72
2022/10/25 10:49:09;;;;;;;1.47;1.37;;;20.00;99.90;;;;;;5098321;27;21799;-78
2022/10/25 10:51:39;;;;;;;2.43;1.70;;;20.00;99.90;;;;;;5118662;27;20458;-78
2022/10/25 10:54:37;;;;;;;8.23;2.23;;;20.00;99.90;;;;;;5121397;27;20813;-72
2022/10/25 10:57:05;;;;;;;2.43;1.90;;;20.00;99.90;;;;;;5106509;27;20510;-77
2022/10/25 10:59:39;;;;;;;1.73;1.63;;;20.00;99.90;;;;;;5125032;27;20558;-79
2022/10/25 11:02:18;;;;;;;1.50;1.40;;;20.00;99.90;;;;;;5125299;27;20481;-78
2022/10/25 11:04:54;;;;;;;2.00;1.60;;;20.00;99.90;;;;;;5127043;27;20435;-72
2022/10/25 11:07:31;;;;;;;1.87;1.40;;;20.00;99.90;;;;;;5095333;28;20616;-78
2022/10/25 11:10:32;;;;;;;1.50;1.40;;;20.00;99.90;;;;;;5102087;27;21161;-78
2022/10/25 11:13:17;;;;;;;1.53;1.43;;;20.00;99.90;;;;;;5054252;28;20410;-72
2022/10/25 11:16:01;;;;;;;2.40;1.60;;;20.00;99.90;;;;;;5118003;27;20487;-72
2022/10/25 11:18:47;;;;;;;2.10;1.37;;;19.90;99.90;;;;;;5122715;27;21240;-72
2022/10/25 11:21:19;;;;;;;1.50;1.40;;;20.00;99.90;;;;;;5126487;27;20454;-72
2022/10/25 11:23:57;;;;;;;1.70;1.60;;;20.00;99.90;;;;;;5123313;27;20470;-73
2022/10/25 11:27:06;;;;;;;1.70;1.40;;;20.00;99.90;;;;;;5124403;27;20543;-72
2022/10/25 11:29:49;;;;;;;1.70;1.57;;;20.00;99.90;;;;;;5104538;27;20463;-78
2022/10/25 11:32:40;;;;;;;2.30;1.50;;;20.00;99.90;;;;;;5122234;27;20485;-78
2022/10/25 11:35:28;;;;;;;2.17;1.60;;;20.00;99.90;;;;;;5120076;27;20519;-72
2022/10/25 11:38:25;;;;;;;2.00;1.60;;;19.90;99.90;;;;;;5128358;27;21014;-78
2022/10/25 11:41:17;;;;;;;2.13;1.30;;;19.90;99.90;;;;;;5122929;27;20460;-78
2022/10/25 11:44:20;;;;;;;1.90;1.73;;;19.90;99.90;;;;;;5120781;27;21067;-78
2022/10/25 11:47:17;;;;;;;3.30;1.50;;;19.90;99.90;;;;;;5125186;27;20553;-72
2022/10/25 11:50:21;;;;;;;1.83;1.43;;;19.90;99.90;;;;;;5103595;27;20494;-78
2022/10/25 11:53:11;;;;;;;2.30;1.57;;;19.90;99.90;;;;;;5038951;28;20445;-71
2022/10/25 11:55:44;;;;;;;1.93;1.60;;;19.80;99.90;;;;;;5024133;28;20463;-71
2022/10/25 11:58:57;;;;;;;1.93;1.60;;;19.80;99.90;;;;;;5094860;27;20419;-78
2022/10/25 12:01:52;;;;;;;1.90;1.50;;;19.80;99.90;;;;;;5099077;27;20545;-77
2022/10/25 12:04:42;;;;;;;2.43;1.47;;;19.70;99.90;;;;;;5118351;27;20827;-72
2022/10/25 12:07:30;;;;;;;1.40;1.30;;;19.70;99.90;;;;;;5104214;27;20716;-78
2022/10/25 12:10:16;;;;;;;1.50;1.40;;;19.70;99.90;;;;;;5125623;27;21267;-72
2022/10/25 12:12:48;;;;;;;3.03;1.57;;;19.70;99.90;;;;;;5120259;27;20435;-78
2022/10/25 12:15:38;;;;;;;1.60;1.40;;;19.70;99.90;;;;;;5118394;27;20443;-78
2022/10/25 12:18:31;;;;;;;1.60;1.50;;;19.60;99.90;;;;;;5107802;27;20469;-71
2022/10/25 12:20:58;;;;;;;2.17;1.40;;;19.60;99.90;;;;;;5122878;27;20950;-78
2022/10/25 12:23:26;;;;;;;1.40;1.13;;;19.60;99.90;;;;;;5125183;27;20473;-72
2022/10/25 12:25:58;;;;;;;1.60;1.50;;;19.60;99.90;;;;;;5101776;27;20515;-78
2022/10/25 12:28:46;;;;;;;1.30;1.20;;;19.60;99.90;;;;;;5121124;27;20919;-72
2022/10/25 12:31:23;;;;;;;1.47;1.37;;;19.60;99.90;;;;;;5105665;27;20488;-71
2022/10/25 12:33:58;;;;;;;3.33;1.50;;;19.60;99.90;;;;;;5124045;27;20440;-78
2022/10/25 12:36:27;;;;;;;3.80;1.40;;;19.50;99.90;;;;;;5121967;27;21013;-78
2022/10/25 12:38:53;;;;;;;1.43;1.23;;;19.60;99.90;;;;;;5109390;27;20479;-71
2022/10/25 12:41:24;;;;;;;1.50;1.40;;;19.60;99.90;;;;;;5105527;27;20452;-72
2022/10/25 12:44:08;;;;;;;2.30;1.47;;;19.60;99.90;;;;;;5104825;27;20570;-77
2022/10/25 12:47:00;;;;;;;2.40;1.50;;;19.60;99.90;;;;;;5107382;27;20448;-78
2022/10/25 12:49:32;;;;;;;1.10;1.00;;;19.60;99.90;;;;;;5113687;27;20496;-78
2022/10/25 12:52:01;;;;;;;1.60;1.50;;;19.60;99.90;;;;;;5107060;27;20427;-72
2022/10/25 12:54:38;;;;;;;1.50;1.40;;;19.50;99.90;;;;;;5104067;27;20458;-78
2022/10/25 12:58:02;;;;;;;1.77;1.20;;;19.50;99.90;;;;;;5109022;28;20521;-72
2022/10/25 13:00:39;;;;;;;2.40;1.90;;;19.50;99.90;;;;;;5017536;28;20522;-78
2022/10/25 13:03:26;;;;;;;3.30;1.80;;;19.50;99.90;;;;;;5109211;27;20573;-78